KGRK/GRK METAR and TAF weather

Enter ICAO airport designator
Station Type Date Time Source
KGRK METAR 2021/08/04 18:41 UTC NOAA

KGRK 041841Z 06007KT 10SM BKN049 31/18 A3003 RMK AO2A SLP158


Station Type Date Time Source
KGRK Decoded METAR 2021/08/04 18:41 UTC NOAA

Fort Hood, Robert Gray AAF Ft Hood, TX, United States (KGRK) 31-04N 097-49W
Aug 04, 2021 - 02:41 PM EDT / 2021.08.04 1841 UTC
Wind: from the ENE (060 degrees) at 8 MPH (7 KT):0
Visibility: 10 mile(s):0
Sky conditions: mostly cloudy
Temperature: 87 F (31 C)
Dew Point: 64 F (18 C)
Relative Humidity: 45%
Pressure (altimeter): 30.03 in. Hg (1016 hPa)
ob: KGRK 041841Z 06007KT 10SM BKN049 31/18 A3003 RMK AO2A SLP158
cycle: 18

Station Type Date Time Source
KGRK TAF 2021/08/04 16:57 UTC NOAA

TAF KGRK 041600Z 0416/0522 03009KT 9999 BKN021 QNH2996INS
BECMG 0418/0419 VRB06KT 9999 SCT050 QNH2998INS
BECMG 0501/0502 VRB06KT 9999 SKC QNH2997INS
BECMG 0518/0519 VRB06KT 9999 -SHRA SCT040 QNH3005INS
TEMPO 0518/0522 VRB15G25KT 9000 -TSRA SCT040CB TX32/0422Z TN20/0512Z

Example: see airport list